<?xml version="1.0" encoding="UTF-8" standalone="no" ?>
<gpx xmlns="http://www.topografix.com/GPX/1/1" xmlns:xsi="http://www.w3.org/2001/XMLSchema-instance" xsi:schemaLocation="http://www.topografix.com/GPX/1/1 http://www.topografix.com/GPX/1/1/gpx.xsd" version="1.1" creator="VisuGPX - https://www.visugpx.com">
  <metadata>
    <name>Semi Marathon Cote Indigo Saint Pierre la Mer</name>
    <desc><![CDATA[Source https://marathon-coteindigo.fr/les-courses/]]></desc>
  </metadata>
  <trk>
    <name><![CDATA[semi marathon Côte Indigo-16995513]]></name>
    <trkseg>
      <trkpt lat="43.18114" lon="3.19292">
        <ele>3</ele>
        <time>2025-11-08T05:54:06Z</time>
      </trkpt>
      <trkpt lat="43.18437" lon="3.19624">
        <ele>3</ele>
        <time>2025-11-08T05:56:21Z</time>
      </trkpt>
      <trkpt lat="43.18484" lon="3.19622">
        <ele>3</ele>
        <time>2025-11-08T05:56:36Z</time>
      </trkpt>
      <trkpt lat="43.18513" lon="3.19642">
        <ele>3</ele>
        <time>2025-11-08T05:56:47Z</time>
      </trkpt>
      <trkpt lat="43.18547" lon="3.19679">
        <ele>3</ele>
        <time>2025-11-08T05:57:02Z</time>
      </trkpt>
      <trkpt lat="43.18664" lon="3.19798">
        <ele>3</ele>
        <time>2025-11-08T05:57:50Z</time>
      </trkpt>
      <trkpt lat="43.18682" lon="3.19805">
        <ele>3</ele>
        <time>2025-11-08T05:57:56Z</time>
      </trkpt>
      <trkpt lat="43.18703" lon="3.19797">
        <ele>4</ele>
        <time>2025-11-08T05:58:04Z</time>
      </trkpt>
      <trkpt lat="43.18727" lon="3.19765">
        <ele>5</ele>
        <time>2025-11-08T05:58:15Z</time>
      </trkpt>
      <trkpt lat="43.18747" lon="3.19735">
        <ele>7</ele>
        <time>2025-11-08T05:58:25Z</time>
      </trkpt>
      <trkpt lat="43.18775" lon="3.1971">
        <ele>8</ele>
        <time>2025-11-08T05:58:36Z</time>
      </trkpt>
      <trkpt lat="43.18802" lon="3.19688">
        <ele>8</ele>
        <time>2025-11-08T05:58:46Z</time>
      </trkpt>
      <trkpt lat="43.1881" lon="3.19669">
        <ele>9</ele>
        <time>2025-11-08T05:58:52Z</time>
      </trkpt>
      <trkpt lat="43.18823" lon="3.1966">
        <ele>8</ele>
        <time>2025-11-08T05:58:57Z</time>
      </trkpt>
      <trkpt lat="43.18845" lon="3.19667">
        <ele>6</ele>
        <time>2025-11-08T05:59:04Z</time>
      </trkpt>
      <trkpt lat="43.18888" lon="3.1965">
        <ele>5</ele>
        <time>2025-11-08T05:59:19Z</time>
      </trkpt>
      <trkpt lat="43.18921" lon="3.19629">
        <ele>4</ele>
        <time>2025-11-08T05:59:31Z</time>
      </trkpt>
      <trkpt lat="43.1893" lon="3.19628">
        <ele>4</ele>
        <time>2025-11-08T05:59:34Z</time>
      </trkpt>
      <trkpt lat="43.18936" lon="3.19632">
        <ele>3</ele>
        <time>2025-11-08T05:59:36Z</time>
      </trkpt>
      <trkpt lat="43.18961" lon="3.19656">
        <ele>2</ele>
        <time>2025-11-08T05:59:47Z</time>
      </trkpt>
      <trkpt lat="43.18975" lon="3.19663">
        <ele>2</ele>
        <time>2025-11-08T05:59:52Z</time>
      </trkpt>
      <trkpt lat="43.19" lon="3.19649">
        <ele>1</ele>
        <time>2025-11-08T06:00:01Z</time>
      </trkpt>
      <trkpt lat="43.19096" lon="3.1964">
        <ele>1.5</ele>
        <time>2025-11-08T06:00:33Z</time>
      </trkpt>
      <trkpt lat="43.19115" lon="3.19645">
        <ele>1.9</ele>
        <time>2025-11-08T06:00:39Z</time>
      </trkpt>
      <trkpt lat="43.1916" lon="3.19681">
        <ele>2</ele>
        <time>2025-11-08T06:00:57Z</time>
      </trkpt>
      <trkpt lat="43.19173" lon="3.19681">
        <ele>2</ele>
        <time>2025-11-08T06:01:01Z</time>
      </trkpt>
      <trkpt lat="43.19198" lon="3.19675">
        <ele>2</ele>
        <time>2025-11-08T06:01:09Z</time>
      </trkpt>
      <trkpt lat="43.19245" lon="3.19691">
        <ele>2</ele>
        <time>2025-11-08T06:01:26Z</time>
      </trkpt>
      <trkpt lat="43.19276" lon="3.19698">
        <ele>2</ele>
        <time>2025-11-08T06:01:36Z</time>
      </trkpt>
      <trkpt lat="43.19317" lon="3.19728">
        <ele>1</ele>
        <time>2025-11-08T06:01:52Z</time>
      </trkpt>
      <trkpt lat="43.19376" lon="3.19788">
        <ele>1</ele>
        <time>2025-11-08T06:02:16Z</time>
      </trkpt>
      <trkpt lat="43.19408" lon="3.19809">
        <ele>2</ele>
        <time>2025-11-08T06:02:28Z</time>
      </trkpt>
      <trkpt lat="43.19417" lon="3.19808">
        <ele>2</ele>
        <time>2025-11-08T06:02:31Z</time>
      </trkpt>
      <trkpt lat="43.19517" lon="3.19755">
        <ele>1</ele>
        <time>2025-11-08T06:03:07Z</time>
      </trkpt>
      <trkpt lat="43.19626" lon="3.19733">
        <ele>1</ele>
        <time>2025-11-08T06:03:43Z</time>
      </trkpt>
      <trkpt lat="43.19712" lon="3.19666">
        <ele>2</ele>
        <time>2025-11-08T06:04:16Z</time>
      </trkpt>
      <trkpt lat="43.19789" lon="3.19616">
        <ele>2</ele>
        <time>2025-11-08T06:04:45Z</time>
      </trkpt>
      <trkpt lat="43.19814" lon="3.19607">
        <ele>2</ele>
        <time>2025-11-08T06:04:53Z</time>
      </trkpt>
      <trkpt lat="43.19822" lon="3.19588">
        <ele>2</ele>
        <time>2025-11-08T06:04:59Z</time>
      </trkpt>
      <trkpt lat="43.19831" lon="3.19448">
        <ele>1</ele>
        <time>2025-11-08T06:05:33Z</time>
      </trkpt>
      <trkpt lat="43.19831" lon="3.19319">
        <ele>2</ele>
        <time>2025-11-08T06:06:04Z</time>
      </trkpt>
      <trkpt lat="43.19827" lon="3.19294">
        <ele>2</ele>
        <time>2025-11-08T06:06:11Z</time>
      </trkpt>
      <trkpt lat="43.1983" lon="3.19221">
        <ele>3</ele>
        <time>2025-11-08T06:06:28Z</time>
      </trkpt>
      <trkpt lat="43.19825" lon="3.19165">
        <ele>3</ele>
        <time>2025-11-08T06:06:42Z</time>
      </trkpt>
      <trkpt lat="43.19826" lon="3.19138">
        <ele>3</ele>
        <time>2025-11-08T06:06:49Z</time>
      </trkpt>
      <trkpt lat="43.1983" lon="3.19131">
        <ele>3</ele>
        <time>2025-11-08T06:06:51Z</time>
      </trkpt>
      <trkpt lat="43.19838" lon="3.19124">
        <ele>2</ele>
        <time>2025-11-08T06:06:54Z</time>
      </trkpt>
      <trkpt lat="43.1985" lon="3.19122">
        <ele>2</ele>
        <time>2025-11-08T06:06:58Z</time>
      </trkpt>
      <trkpt lat="43.20013" lon="3.19113">
        <ele>3</ele>
        <time>2025-11-08T06:07:52Z</time>
      </trkpt>
      <trkpt lat="43.20154" lon="3.19109">
        <ele>2</ele>
        <time>2025-11-08T06:08:39Z</time>
      </trkpt>
      <trkpt lat="43.20311" lon="3.19122">
        <ele>3</ele>
        <time>2025-11-08T06:09:32Z</time>
      </trkpt>
      <trkpt lat="43.20335" lon="3.19129">
        <ele>3</ele>
        <time>2025-11-08T06:09:40Z</time>
      </trkpt>
      <trkpt lat="43.20454" lon="3.19187">
        <ele>3</ele>
        <time>2025-11-08T06:10:22Z</time>
      </trkpt>
      <trkpt lat="43.20547" lon="3.19289">
        <ele>1</ele>
        <time>2025-11-08T06:11:02Z</time>
      </trkpt>
      <trkpt lat="43.20581" lon="3.19325">
        <ele>-1</ele>
        <time>2025-11-08T06:11:16Z</time>
      </trkpt>
      <trkpt lat="43.20605" lon="3.19336">
        <ele>-1</ele>
        <time>2025-11-08T06:11:25Z</time>
      </trkpt>
      <trkpt lat="43.20623" lon="3.19338">
        <ele>-1</ele>
        <time>2025-11-08T06:11:31Z</time>
      </trkpt>
      <trkpt lat="43.20647" lon="3.19333">
        <ele>-1</ele>
        <time>2025-11-08T06:11:39Z</time>
      </trkpt>
      <trkpt lat="43.20663" lon="3.19334">
        <ele>-1</ele>
        <time>2025-11-08T06:11:44Z</time>
      </trkpt>
      <trkpt lat="43.20709" lon="3.19354">
        <ele>1.3</ele>
        <time>2025-11-08T06:12:00Z</time>
      </trkpt>
      <trkpt lat="43.20718" lon="3.19364">
        <ele>1</ele>
        <time>2025-11-08T06:12:04Z</time>
      </trkpt>
      <trkpt lat="43.2073" lon="3.19384">
        <ele>1</ele>
        <time>2025-11-08T06:12:10Z</time>
      </trkpt>
      <trkpt lat="43.20744" lon="3.19394">
        <ele>1</ele>
        <time>2025-11-08T06:12:16Z</time>
      </trkpt>
      <trkpt lat="43.20758" lon="3.19398">
        <ele>1</ele>
        <time>2025-11-08T06:12:21Z</time>
      </trkpt>
      <trkpt lat="43.20811" lon="3.19393">
        <ele>2</ele>
        <time>2025-11-08T06:12:38Z</time>
      </trkpt>
      <trkpt lat="43.209" lon="3.19423">
        <ele>1</ele>
        <time>2025-11-08T06:13:09Z</time>
      </trkpt>
      <trkpt lat="43.20942" lon="3.19427">
        <ele>1</ele>
        <time>2025-11-08T06:13:23Z</time>
      </trkpt>
      <trkpt lat="43.2105" lon="3.19466">
        <ele>1</ele>
        <time>2025-11-08T06:14:00Z</time>
      </trkpt>
      <trkpt lat="43.2108" lon="3.19461">
        <ele>1</ele>
        <time>2025-11-08T06:14:10Z</time>
      </trkpt>
      <trkpt lat="43.2117" lon="3.19471">
        <ele>1</ele>
        <time>2025-11-08T06:14:40Z</time>
      </trkpt>
      <trkpt lat="43.21209" lon="3.19472">
        <ele>2</ele>
        <time>2025-11-08T06:14:53Z</time>
      </trkpt>
      <trkpt lat="43.21323" lon="3.19459">
        <ele>3</ele>
        <time>2025-11-08T06:15:31Z</time>
      </trkpt>
      <trkpt lat="43.21354" lon="3.19449">
        <ele>3</ele>
        <time>2025-11-08T06:15:42Z</time>
      </trkpt>
      <trkpt lat="43.21414" lon="3.19412">
        <ele>2</ele>
        <time>2025-11-08T06:16:04Z</time>
      </trkpt>
      <trkpt lat="43.21437" lon="3.19415">
        <ele>2</ele>
        <time>2025-11-08T06:16:12Z</time>
      </trkpt>
      <trkpt lat="43.21507" lon="3.19432">
        <ele>3</ele>
        <time>2025-11-08T06:16:35Z</time>
      </trkpt>
      <trkpt lat="43.21519" lon="3.19444">
        <ele>3</ele>
        <time>2025-11-08T06:16:40Z</time>
      </trkpt>
      <trkpt lat="43.21584" lon="3.19471">
        <ele>3</ele>
        <time>2025-11-08T06:17:03Z</time>
      </trkpt>
      <trkpt lat="43.21662" lon="3.19468">
        <ele>3</ele>
        <time>2025-11-08T06:17:29Z</time>
      </trkpt>
      <trkpt lat="43.21678" lon="3.19469">
        <ele>3</ele>
        <time>2025-11-08T06:17:34Z</time>
      </trkpt>
      <trkpt lat="43.21693" lon="3.19468">
        <ele>3</ele>
        <time>2025-11-08T06:17:39Z</time>
      </trkpt>
      <trkpt lat="43.21815" lon="3.19454">
        <ele>3</ele>
        <time>2025-11-08T06:18:20Z</time>
      </trkpt>
      <trkpt lat="43.21843" lon="3.19452">
        <ele>4</ele>
        <time>2025-11-08T06:18:30Z</time>
      </trkpt>
      <trkpt lat="43.21949" lon="3.19481">
        <ele>3</ele>
        <time>2025-11-08T06:19:06Z</time>
      </trkpt>
      <trkpt lat="43.22007" lon="3.19499">
        <ele>3</ele>
        <time>2025-11-08T06:19:26Z</time>
      </trkpt>
      <trkpt lat="43.22059" lon="3.19473">
        <ele>2</ele>
        <time>2025-11-08T06:19:44Z</time>
      </trkpt>
      <trkpt lat="43.22117" lon="3.19443">
        <ele>2</ele>
        <time>2025-11-08T06:20:05Z</time>
      </trkpt>
      <trkpt lat="43.2214" lon="3.19425">
        <ele>3</ele>
        <time>2025-11-08T06:20:14Z</time>
      </trkpt>
      <trkpt lat="43.22175" lon="3.19405">
        <ele>3</ele>
        <time>2025-11-08T06:20:26Z</time>
      </trkpt>
      <trkpt lat="43.22203" lon="3.19396">
        <ele>4</ele>
        <time>2025-11-08T06:20:36Z</time>
      </trkpt>
      <trkpt lat="43.22289" lon="3.19408">
        <ele>5</ele>
        <time>2025-11-08T06:21:05Z</time>
      </trkpt>
      <trkpt lat="43.22325" lon="3.19415">
        <ele>6</ele>
        <time>2025-11-08T06:21:17Z</time>
      </trkpt>
      <trkpt lat="43.22381" lon="3.19432">
        <ele>6</ele>
        <time>2025-11-08T06:21:36Z</time>
      </trkpt>
      <trkpt lat="43.22401" lon="3.19433">
        <ele>6</ele>
        <time>2025-11-08T06:21:43Z</time>
      </trkpt>
      <trkpt lat="43.22421" lon="3.19422">
        <ele>6</ele>
        <time>2025-11-08T06:21:50Z</time>
      </trkpt>
      <trkpt lat="43.22496" lon="3.19412">
        <ele>4</ele>
        <time>2025-11-08T06:22:15Z</time>
      </trkpt>
      <trkpt lat="43.22614" lon="3.19399">
        <ele>5</ele>
        <time>2025-11-08T06:22:54Z</time>
      </trkpt>
      <trkpt lat="43.2272" lon="3.19387">
        <ele>4</ele>
        <time>2025-11-08T06:23:30Z</time>
      </trkpt>
      <trkpt lat="43.22764" lon="3.19388">
        <ele>4</ele>
        <time>2025-11-08T06:23:45Z</time>
      </trkpt>
      <trkpt lat="43.22909" lon="3.19414">
        <ele>3</ele>
        <time>2025-11-08T06:24:33Z</time>
      </trkpt>
      <trkpt lat="43.22925" lon="3.19412">
        <ele>3</ele>
        <time>2025-11-08T06:24:39Z</time>
      </trkpt>
      <trkpt lat="43.23009" lon="3.19379">
        <ele>3</ele>
        <time>2025-11-08T06:25:08Z</time>
      </trkpt>
      <trkpt lat="43.23119" lon="3.19335">
        <ele>3</ele>
        <time>2025-11-08T06:25:46Z</time>
      </trkpt>
      <trkpt lat="43.2317" lon="3.19315">
        <ele>4</ele>
        <time>2025-11-08T06:26:04Z</time>
      </trkpt>
      <trkpt lat="43.23264" lon="3.19304">
        <ele>4</ele>
        <time>2025-11-08T06:26:35Z</time>
      </trkpt>
      <trkpt lat="43.23314" lon="3.19304">
        <ele>3</ele>
        <time>2025-11-08T06:26:52Z</time>
      </trkpt>
      <trkpt lat="43.23304" lon="3.19338">
        <ele>3</ele>
        <time>2025-11-08T06:27:01Z</time>
      </trkpt>
      <trkpt lat="43.23243" lon="3.19558">
        <ele>3</ele>
        <time>2025-11-08T06:27:58Z</time>
      </trkpt>
      <trkpt lat="43.23163" lon="3.19845">
        <ele>3</ele>
        <time>2025-11-08T06:29:13Z</time>
      </trkpt>
      <trkpt lat="43.23097" lon="3.20081">
        <ele>3</ele>
        <time>2025-11-08T06:30:14Z</time>
      </trkpt>
      <trkpt lat="43.23019" lon="3.20358">
        <ele>3</ele>
        <time>2025-11-08T06:31:26Z</time>
      </trkpt>
      <trkpt lat="43.23007" lon="3.20398">
        <ele>3</ele>
        <time>2025-11-08T06:31:37Z</time>
      </trkpt>
      <trkpt lat="43.22996" lon="3.20405">
        <ele>3</ele>
        <time>2025-11-08T06:31:41Z</time>
      </trkpt>
      <trkpt lat="43.22874" lon="3.2045">
        <ele>3</ele>
        <time>2025-11-08T06:32:23Z</time>
      </trkpt>
      <trkpt lat="43.22789" lon="3.20482">
        <ele>2</ele>
        <time>2025-11-08T06:32:52Z</time>
      </trkpt>
      <trkpt lat="43.22781" lon="3.20496">
        <ele>2</ele>
        <time>2025-11-08T06:32:57Z</time>
      </trkpt>
      <trkpt lat="43.22792" lon="3.20586">
        <ele>3</ele>
        <time>2025-11-08T06:33:19Z</time>
      </trkpt>
      <trkpt lat="43.22702" lon="3.20763">
        <ele>2</ele>
        <time>2025-11-08T06:34:11Z</time>
      </trkpt>
      <trkpt lat="43.22641" lon="3.20881">
        <ele>2</ele>
        <time>2025-11-08T06:34:47Z</time>
      </trkpt>
      <trkpt lat="43.22564" lon="3.2103">
        <ele>2</ele>
        <time>2025-11-08T06:35:31Z</time>
      </trkpt>
      <trkpt lat="43.22505" lon="3.21152">
        <ele>2</ele>
        <time>2025-11-08T06:36:07Z</time>
      </trkpt>
      <trkpt lat="43.22417" lon="3.21332">
        <ele>4</ele>
        <time>2025-11-08T06:36:59Z</time>
      </trkpt>
      <trkpt lat="43.22337" lon="3.21495">
        <ele>4</ele>
        <time>2025-11-08T06:37:47Z</time>
      </trkpt>
      <trkpt lat="43.22259" lon="3.21656">
        <ele>4</ele>
        <time>2025-11-08T06:38:34Z</time>
      </trkpt>
      <trkpt lat="43.22179" lon="3.21827">
        <ele>4</ele>
        <time>2025-11-08T06:39:24Z</time>
      </trkpt>
      <trkpt lat="43.22144" lon="3.2191">
        <ele>2</ele>
        <time>2025-11-08T06:39:47Z</time>
      </trkpt>
      <trkpt lat="43.22141" lon="3.21922">
        <ele>2</ele>
        <time>2025-11-08T06:39:50Z</time>
      </trkpt>
      <trkpt lat="43.22139" lon="3.21937">
        <ele>2</ele>
        <time>2025-11-08T06:39:54Z</time>
      </trkpt>
      <trkpt lat="43.22137" lon="3.21967">
        <ele>2</ele>
        <time>2025-11-08T06:40:01Z</time>
      </trkpt>
      <trkpt lat="43.22133" lon="3.22038">
        <ele>2</ele>
        <time>2025-11-08T06:40:18Z</time>
      </trkpt>
      <trkpt lat="43.22128" lon="3.2206">
        <ele>1</ele>
        <time>2025-11-08T06:40:24Z</time>
      </trkpt>
      <trkpt lat="43.22097" lon="3.2215">
        <ele>2</ele>
        <time>2025-11-08T06:40:48Z</time>
      </trkpt>
      <trkpt lat="43.21998" lon="3.22404">
        <ele>1</ele>
        <time>2025-11-08T06:41:58Z</time>
      </trkpt>
      <trkpt lat="43.2191" lon="3.22629">
        <ele>2</ele>
        <time>2025-11-08T06:43:00Z</time>
      </trkpt>
      <trkpt lat="43.21864" lon="3.22747">
        <ele>3</ele>
        <time>2025-11-08T06:43:33Z</time>
      </trkpt>
      <trkpt lat="43.21771" lon="3.22939">
        <ele>3</ele>
        <time>2025-11-08T06:44:29Z</time>
      </trkpt>
      <trkpt lat="43.2176" lon="3.22948">
        <ele>4</ele>
        <time>2025-11-08T06:44:33Z</time>
      </trkpt>
      <trkpt lat="43.21747" lon="3.22966">
        <ele>4</ele>
        <time>2025-11-08T06:44:39Z</time>
      </trkpt>
      <trkpt lat="43.21744" lon="3.22973">
        <ele>4</ele>
        <time>2025-11-08T06:44:41Z</time>
      </trkpt>
      <trkpt lat="43.21766" lon="3.22987">
        <ele>4</ele>
        <time>2025-11-08T06:44:49Z</time>
      </trkpt>
      <trkpt lat="43.2177" lon="3.22955">
        <ele>4</ele>
        <time>2025-11-08T06:44:57Z</time>
      </trkpt>
      <trkpt lat="43.21764" lon="3.22947">
        <ele>4</ele>
        <time>2025-11-08T06:45:00Z</time>
      </trkpt>
      <trkpt lat="43.21773" lon="3.22936">
        <ele>3</ele>
        <time>2025-11-08T06:45:04Z</time>
      </trkpt>
      <trkpt lat="43.2186" lon="3.22758">
        <ele>3</ele>
        <time>2025-11-08T06:45:56Z</time>
      </trkpt>
      <trkpt lat="43.21906" lon="3.22641">
        <ele>2</ele>
        <time>2025-11-08T06:46:28Z</time>
      </trkpt>
      <trkpt lat="43.21949" lon="3.22529">
        <ele>1</ele>
        <time>2025-11-08T06:46:59Z</time>
      </trkpt>
      <trkpt lat="43.21989" lon="3.22432">
        <ele>1</ele>
        <time>2025-11-08T06:47:26Z</time>
      </trkpt>
      <trkpt lat="43.22027" lon="3.22332">
        <ele>2</ele>
        <time>2025-11-08T06:47:54Z</time>
      </trkpt>
      <trkpt lat="43.22062" lon="3.22245">
        <ele>3</ele>
        <time>2025-11-08T06:48:18Z</time>
      </trkpt>
      <trkpt lat="43.22094" lon="3.2216">
        <ele>2</ele>
        <time>2025-11-08T06:48:41Z</time>
      </trkpt>
      <trkpt lat="43.22127" lon="3.22066">
        <ele>1</ele>
        <time>2025-11-08T06:49:06Z</time>
      </trkpt>
      <trkpt lat="43.22133" lon="3.22043">
        <ele>2</ele>
        <time>2025-11-08T06:49:12Z</time>
      </trkpt>
      <trkpt lat="43.22138" lon="3.21987">
        <ele>2</ele>
        <time>2025-11-08T06:49:26Z</time>
      </trkpt>
      <trkpt lat="43.2214" lon="3.21943">
        <ele>2</ele>
        <time>2025-11-08T06:49:37Z</time>
      </trkpt>
      <trkpt lat="43.22142" lon="3.21915">
        <ele>2</ele>
        <time>2025-11-08T06:49:44Z</time>
      </trkpt>
      <trkpt lat="43.22187" lon="3.21812">
        <ele>3</ele>
        <time>2025-11-08T06:50:13Z</time>
      </trkpt>
      <trkpt lat="43.22255" lon="3.21668">
        <ele>4</ele>
        <time>2025-11-08T06:50:55Z</time>
      </trkpt>
      <trkpt lat="43.22334" lon="3.21504">
        <ele>4</ele>
        <time>2025-11-08T06:51:42Z</time>
      </trkpt>
      <trkpt lat="43.22414" lon="3.21339">
        <ele>4</ele>
        <time>2025-11-08T06:52:31Z</time>
      </trkpt>
      <trkpt lat="43.22502" lon="3.2116">
        <ele>2</ele>
        <time>2025-11-08T06:53:23Z</time>
      </trkpt>
      <trkpt lat="43.22578" lon="3.21004">
        <ele>2</ele>
        <time>2025-11-08T06:54:09Z</time>
      </trkpt>
      <trkpt lat="43.22639" lon="3.20887">
        <ele>2</ele>
        <time>2025-11-08T06:54:44Z</time>
      </trkpt>
      <trkpt lat="43.22713" lon="3.20741">
        <ele>2</ele>
        <time>2025-11-08T06:55:27Z</time>
      </trkpt>
      <trkpt lat="43.22792" lon="3.20591">
        <ele>3</ele>
        <time>2025-11-08T06:56:12Z</time>
      </trkpt>
      <trkpt lat="43.22792" lon="3.20576">
        <ele>3</ele>
        <time>2025-11-08T06:56:16Z</time>
      </trkpt>
      <trkpt lat="43.22782" lon="3.205">
        <ele>2</ele>
        <time>2025-11-08T06:56:34Z</time>
      </trkpt>
      <trkpt lat="43.22783" lon="3.2049">
        <ele>2</ele>
        <time>2025-11-08T06:56:37Z</time>
      </trkpt>
      <trkpt lat="43.22796" lon="3.20479">
        <ele>2</ele>
        <time>2025-11-08T06:56:42Z</time>
      </trkpt>
      <trkpt lat="43.22927" lon="3.20432">
        <ele>3</ele>
        <time>2025-11-08T06:57:27Z</time>
      </trkpt>
      <trkpt lat="43.23004" lon="3.20402">
        <ele>3</ele>
        <time>2025-11-08T06:57:54Z</time>
      </trkpt>
      <trkpt lat="43.2301" lon="3.20393">
        <ele>3</ele>
        <time>2025-11-08T06:57:57Z</time>
      </trkpt>
      <trkpt lat="43.23039" lon="3.20289">
        <ele>3</ele>
        <time>2025-11-08T06:58:24Z</time>
      </trkpt>
      <trkpt lat="43.23122" lon="3.19997">
        <ele>1</ele>
        <time>2025-11-08T06:59:40Z</time>
      </trkpt>
      <trkpt lat="43.23186" lon="3.19765">
        <ele>3</ele>
        <time>2025-11-08T07:00:40Z</time>
      </trkpt>
      <trkpt lat="43.23242" lon="3.19565">
        <ele>3</ele>
        <time>2025-11-08T07:01:32Z</time>
      </trkpt>
      <trkpt lat="43.23314" lon="3.19308">
        <ele>3</ele>
        <time>2025-11-08T07:02:39Z</time>
      </trkpt>
      <trkpt lat="43.2331" lon="3.19303">
        <ele>3</ele>
        <time>2025-11-08T07:02:41Z</time>
      </trkpt>
      <trkpt lat="43.2327" lon="3.19307">
        <ele>4</ele>
        <time>2025-11-08T07:02:54Z</time>
      </trkpt>
      <trkpt lat="43.23203" lon="3.19311">
        <ele>5</ele>
        <time>2025-11-08T07:03:17Z</time>
      </trkpt>
      <trkpt lat="43.23167" lon="3.19315">
        <ele>4</ele>
        <time>2025-11-08T07:03:29Z</time>
      </trkpt>
      <trkpt lat="43.23064" lon="3.19356">
        <ele>3</ele>
        <time>2025-11-08T07:04:05Z</time>
      </trkpt>
      <trkpt lat="43.22932" lon="3.19409">
        <ele>3</ele>
        <time>2025-11-08T07:04:50Z</time>
      </trkpt>
      <trkpt lat="43.22915" lon="3.19415">
        <ele>3</ele>
        <time>2025-11-08T07:04:56Z</time>
      </trkpt>
      <trkpt lat="43.22838" lon="3.194">
        <ele>3</ele>
        <time>2025-11-08T07:05:22Z</time>
      </trkpt>
      <trkpt lat="43.22768" lon="3.19389">
        <ele>4</ele>
        <time>2025-11-08T07:05:46Z</time>
      </trkpt>
      <trkpt lat="43.22757" lon="3.19387">
        <ele>4</ele>
        <time>2025-11-08T07:05:50Z</time>
      </trkpt>
      <trkpt lat="43.22727" lon="3.19387">
        <ele>4</ele>
        <time>2025-11-08T07:06:00Z</time>
      </trkpt>
      <trkpt lat="43.22714" lon="3.19387">
        <ele>4</ele>
        <time>2025-11-08T07:06:04Z</time>
      </trkpt>
      <trkpt lat="43.2262" lon="3.19398">
        <ele>5</ele>
        <time>2025-11-08T07:06:35Z</time>
      </trkpt>
      <trkpt lat="43.22429" lon="3.19421">
        <ele>6</ele>
        <time>2025-11-08T07:07:39Z</time>
      </trkpt>
      <trkpt lat="43.22418" lon="3.19423">
        <ele>6</ele>
        <time>2025-11-08T07:07:43Z</time>
      </trkpt>
      <trkpt lat="43.22405" lon="3.19431">
        <ele>6</ele>
        <time>2025-11-08T07:07:48Z</time>
      </trkpt>
      <trkpt lat="43.22395" lon="3.19433">
        <ele>6</ele>
        <time>2025-11-08T07:07:51Z</time>
      </trkpt>
      <trkpt lat="43.22375" lon="3.1943">
        <ele>6</ele>
        <time>2025-11-08T07:07:58Z</time>
      </trkpt>
      <trkpt lat="43.22329" lon="3.19418">
        <ele>6</ele>
        <time>2025-11-08T07:08:13Z</time>
      </trkpt>
      <trkpt lat="43.22294" lon="3.19408">
        <ele>5</ele>
        <time>2025-11-08T07:08:25Z</time>
      </trkpt>
      <trkpt lat="43.22206" lon="3.19397">
        <ele>4</ele>
        <time>2025-11-08T07:08:55Z</time>
      </trkpt>
      <trkpt lat="43.22178" lon="3.19403">
        <ele>3</ele>
        <time>2025-11-08T07:09:04Z</time>
      </trkpt>
      <trkpt lat="43.22144" lon="3.19421">
        <ele>3</ele>
        <time>2025-11-08T07:09:16Z</time>
      </trkpt>
      <trkpt lat="43.2212" lon="3.1944">
        <ele>2</ele>
        <time>2025-11-08T07:09:26Z</time>
      </trkpt>
      <trkpt lat="43.2201" lon="3.19498">
        <ele>3</ele>
        <time>2025-11-08T07:10:05Z</time>
      </trkpt>
      <trkpt lat="43.21907" lon="3.19469">
        <ele>3</ele>
        <time>2025-11-08T07:10:40Z</time>
      </trkpt>
      <trkpt lat="43.21847" lon="3.19453">
        <ele>4</ele>
        <time>2025-11-08T07:11:00Z</time>
      </trkpt>
      <trkpt lat="43.21821" lon="3.19454">
        <ele>3</ele>
        <time>2025-11-08T07:11:09Z</time>
      </trkpt>
      <trkpt lat="43.21697" lon="3.19467">
        <ele>3</ele>
        <time>2025-11-08T07:11:51Z</time>
      </trkpt>
      <trkpt lat="43.21586" lon="3.19471">
        <ele>3</ele>
        <time>2025-11-08T07:12:28Z</time>
      </trkpt>
      <trkpt lat="43.21522" lon="3.19445">
        <ele>3</ele>
        <time>2025-11-08T07:12:50Z</time>
      </trkpt>
      <trkpt lat="43.21504" lon="3.1943">
        <ele>3</ele>
        <time>2025-11-08T07:12:57Z</time>
      </trkpt>
      <trkpt lat="43.21442" lon="3.19416">
        <ele>2</ele>
        <time>2025-11-08T07:13:18Z</time>
      </trkpt>
      <trkpt lat="43.21411" lon="3.19413">
        <ele>2</ele>
        <time>2025-11-08T07:13:28Z</time>
      </trkpt>
      <trkpt lat="43.21357" lon="3.19446">
        <ele>3</ele>
        <time>2025-11-08T07:13:48Z</time>
      </trkpt>
      <trkpt lat="43.21328" lon="3.19458">
        <ele>3</ele>
        <time>2025-11-08T07:13:58Z</time>
      </trkpt>
      <trkpt lat="43.21212" lon="3.19472">
        <ele>2</ele>
        <time>2025-11-08T07:14:37Z</time>
      </trkpt>
      <trkpt lat="43.21106" lon="3.19464">
        <ele>1</ele>
        <time>2025-11-08T07:15:12Z</time>
      </trkpt>
      <trkpt lat="43.21076" lon="3.19461">
        <ele>1</ele>
        <time>2025-11-08T07:15:22Z</time>
      </trkpt>
      <trkpt lat="43.21054" lon="3.19466">
        <ele>1</ele>
        <time>2025-11-08T07:15:30Z</time>
      </trkpt>
      <trkpt lat="43.20973" lon="3.19439">
        <ele>1</ele>
        <time>2025-11-08T07:15:58Z</time>
      </trkpt>
      <trkpt lat="43.20947" lon="3.19429">
        <ele>1</ele>
        <time>2025-11-08T07:16:07Z</time>
      </trkpt>
      <trkpt lat="43.20904" lon="3.19423">
        <ele>1</ele>
        <time>2025-11-08T07:16:21Z</time>
      </trkpt>
      <trkpt lat="43.20813" lon="3.19394">
        <ele>2</ele>
        <time>2025-11-08T07:16:52Z</time>
      </trkpt>
      <trkpt lat="43.2076" lon="3.19398">
        <ele>1</ele>
        <time>2025-11-08T07:17:10Z</time>
      </trkpt>
      <trkpt lat="43.20742" lon="3.19394">
        <ele>1</ele>
        <time>2025-11-08T07:17:16Z</time>
      </trkpt>
      <trkpt lat="43.20727" lon="3.19381">
        <ele>1</ele>
        <time>2025-11-08T07:17:22Z</time>
      </trkpt>
      <trkpt lat="43.20712" lon="3.19358">
        <ele>1.1</ele>
        <time>2025-11-08T07:17:30Z</time>
      </trkpt>
      <trkpt lat="43.20666" lon="3.19335">
        <ele>-1</ele>
        <time>2025-11-08T07:17:46Z</time>
      </trkpt>
      <trkpt lat="43.20649" lon="3.19332">
        <ele>-1</ele>
        <time>2025-11-08T07:17:52Z</time>
      </trkpt>
      <trkpt lat="43.20627" lon="3.19338">
        <ele>-1</ele>
        <time>2025-11-08T07:17:59Z</time>
      </trkpt>
      <trkpt lat="43.20607" lon="3.19336">
        <ele>-1</ele>
        <time>2025-11-08T07:18:06Z</time>
      </trkpt>
      <trkpt lat="43.20584" lon="3.19327">
        <ele>-1</ele>
        <time>2025-11-08T07:18:14Z</time>
      </trkpt>
      <trkpt lat="43.20457" lon="3.19189">
        <ele>3</ele>
        <time>2025-11-08T07:19:08Z</time>
      </trkpt>
      <trkpt lat="43.20339" lon="3.19131">
        <ele>3</ele>
        <time>2025-11-08T07:19:50Z</time>
      </trkpt>
      <trkpt lat="43.20314" lon="3.19123">
        <ele>3</ele>
        <time>2025-11-08T07:19:58Z</time>
      </trkpt>
      <trkpt lat="43.20158" lon="3.1911">
        <ele>2</ele>
        <time>2025-11-08T07:20:50Z</time>
      </trkpt>
      <trkpt lat="43.20017" lon="3.19113">
        <ele>3</ele>
        <time>2025-11-08T07:21:37Z</time>
      </trkpt>
      <trkpt lat="43.19856" lon="3.19121">
        <ele>2</ele>
        <time>2025-11-08T07:22:31Z</time>
      </trkpt>
      <trkpt lat="43.19834" lon="3.19125">
        <ele>2</ele>
        <time>2025-11-08T07:22:38Z</time>
      </trkpt>
      <trkpt lat="43.19827" lon="3.19134">
        <ele>3</ele>
        <time>2025-11-08T07:22:42Z</time>
      </trkpt>
      <trkpt lat="43.19825" lon="3.19152">
        <ele>3</ele>
        <time>2025-11-08T07:22:46Z</time>
      </trkpt>
      <trkpt lat="43.19826" lon="3.19179">
        <ele>3</ele>
        <time>2025-11-08T07:22:53Z</time>
      </trkpt>
      <trkpt lat="43.19831" lon="3.19225">
        <ele>3</ele>
        <time>2025-11-08T07:23:04Z</time>
      </trkpt>
      <trkpt lat="43.19828" lon="3.1929">
        <ele>2</ele>
        <time>2025-11-08T07:23:20Z</time>
      </trkpt>
      <trkpt lat="43.19831" lon="3.19315">
        <ele>2</ele>
        <time>2025-11-08T07:23:26Z</time>
      </trkpt>
      <trkpt lat="43.1983" lon="3.19445">
        <ele>1</ele>
        <time>2025-11-08T07:23:58Z</time>
      </trkpt>
      <trkpt lat="43.19822" lon="3.19585">
        <ele>2</ele>
        <time>2025-11-08T07:24:32Z</time>
      </trkpt>
      <trkpt lat="43.19815" lon="3.19604">
        <ele>2</ele>
        <time>2025-11-08T07:24:37Z</time>
      </trkpt>
      <trkpt lat="43.19792" lon="3.19613">
        <ele>2</ele>
        <time>2025-11-08T07:24:45Z</time>
      </trkpt>
      <trkpt lat="43.19715" lon="3.19664">
        <ele>2</ele>
        <time>2025-11-08T07:25:13Z</time>
      </trkpt>
      <trkpt lat="43.19629" lon="3.1973">
        <ele>1</ele>
        <time>2025-11-08T07:25:46Z</time>
      </trkpt>
      <trkpt lat="43.19519" lon="3.19754">
        <ele>1</ele>
        <time>2025-11-08T07:26:23Z</time>
      </trkpt>
      <trkpt lat="43.19419" lon="3.19806">
        <ele>2</ele>
        <time>2025-11-08T07:26:59Z</time>
      </trkpt>
      <trkpt lat="43.19411" lon="3.19809">
        <ele>2</ele>
        <time>2025-11-08T07:27:02Z</time>
      </trkpt>
      <trkpt lat="43.19378" lon="3.1979">
        <ele>1</ele>
        <time>2025-11-08T07:27:14Z</time>
      </trkpt>
      <trkpt lat="43.19314" lon="3.19725">
        <ele>1</ele>
        <time>2025-11-08T07:27:40Z</time>
      </trkpt>
      <trkpt lat="43.1928" lon="3.19701">
        <ele>1</ele>
        <time>2025-11-08T07:27:53Z</time>
      </trkpt>
      <trkpt lat="43.19248" lon="3.19692">
        <ele>2</ele>
        <time>2025-11-08T07:28:04Z</time>
      </trkpt>
      <trkpt lat="43.19201" lon="3.19676">
        <ele>2</ele>
        <time>2025-11-08T07:28:20Z</time>
      </trkpt>
      <trkpt lat="43.19176" lon="3.19681">
        <ele>2</ele>
        <time>2025-11-08T07:28:29Z</time>
      </trkpt>
      <trkpt lat="43.19163" lon="3.19682">
        <ele>2</ele>
        <time>2025-11-08T07:28:33Z</time>
      </trkpt>
      <trkpt lat="43.19118" lon="3.19648">
        <ele>1</ele>
        <time>2025-11-08T07:28:50Z</time>
      </trkpt>
      <trkpt lat="43.19098" lon="3.19642">
        <ele>1.6</ele>
        <time>2025-11-08T07:28:57Z</time>
      </trkpt>
      <trkpt lat="43.19003" lon="3.19649">
        <ele>1</ele>
        <time>2025-11-08T07:29:29Z</time>
      </trkpt>
      <trkpt lat="43.18977" lon="3.19661">
        <ele>2</ele>
        <time>2025-11-08T07:29:38Z</time>
      </trkpt>
      <trkpt lat="43.18977" lon="3.19669">
        <ele>2</ele>
        <time>2025-11-08T07:29:40Z</time>
      </trkpt>
      <trkpt lat="43.18986" lon="3.19682">
        <ele>1</ele>
        <time>2025-11-08T07:29:44Z</time>
      </trkpt>
      <trkpt lat="43.19031" lon="3.19727">
        <ele>2</ele>
        <time>2025-11-08T07:30:03Z</time>
      </trkpt>
      <trkpt lat="43.18957" lon="3.19833">
        <ele>1</ele>
        <time>2025-11-08T07:30:38Z</time>
      </trkpt>
      <trkpt lat="43.18931" lon="3.19801">
        <ele>1</ele>
        <time>2025-11-08T07:30:50Z</time>
      </trkpt>
      <trkpt lat="43.18823" lon="3.19951">
        <ele>2</ele>
        <time>2025-11-08T07:31:41Z</time>
      </trkpt>
      <trkpt lat="43.18819" lon="3.19999">
        <ele>2</ele>
        <time>2025-11-08T07:31:53Z</time>
      </trkpt>
      <trkpt lat="43.18815" lon="3.20021">
        <ele>2</ele>
        <time>2025-11-08T07:31:59Z</time>
      </trkpt>
      <trkpt lat="43.18769" lon="3.20084">
        <ele>1.7</ele>
        <time>2025-11-08T07:32:20Z</time>
      </trkpt>
      <trkpt lat="43.18672" lon="3.20227">
        <ele>4</ele>
        <time>2025-11-08T07:33:08Z</time>
      </trkpt>
      <trkpt lat="43.18482" lon="3.19974">
        <ele>4</ele>
        <time>2025-11-08T07:34:36Z</time>
      </trkpt>
      <trkpt lat="43.18351" lon="3.19799">
        <ele>4</ele>
        <time>2025-11-08T07:35:37Z</time>
      </trkpt>
      <trkpt lat="43.18267" lon="3.19689">
        <ele>2</ele>
        <time>2025-11-08T07:36:16Z</time>
      </trkpt>
      <trkpt lat="43.18214" lon="3.19627">
        <ele>3</ele>
        <time>2025-11-08T07:36:39Z</time>
      </trkpt>
      <trkpt lat="43.18218" lon="3.19601">
        <ele>3</ele>
        <time>2025-11-08T07:36:46Z</time>
      </trkpt>
      <trkpt lat="43.18088" lon="3.19449">
        <ele>1</ele>
        <time>2025-11-08T07:37:43Z</time>
      </trkpt>
      <trkpt lat="43.17989" lon="3.19326">
        <ele>1</ele>
        <time>2025-11-08T07:38:27Z</time>
      </trkpt>
      <trkpt lat="43.17851" lon="3.19161">
        <ele>2</ele>
        <time>2025-11-08T07:39:28Z</time>
      </trkpt>
      <trkpt lat="43.17885" lon="3.19056">
        <ele>5</ele>
        <time>2025-11-08T07:39:56Z</time>
      </trkpt>
      <trkpt lat="43.17967" lon="3.19145">
        <ele>5</ele>
        <time>2025-11-08T07:40:31Z</time>
      </trkpt>
    </trkseg>
  </trk>
</gpx>